Time,TemperatureF,DewpointF,PressureIn,WindDirection,WindDirectionDegrees,WindSpeedMPH,WindSpeedGustMPH,Humidity,HourlyPrecipIn,Conditions,Clouds,dailyrainin,SoftwareType,DateUTC
2013-04-13 00:03:00,39.2,35.9,29.16,NNE,22,4.0,4.0,88,0.00,RA,OVC,0.00,WeatherDisplay:10.37,2013-04-12 23:03:00,
2013-04-13 00:08:00,39.2,35.9,29.16,NE,45,2.5,2.5,88,0.00,RA,OVC,0.00,WeatherDisplay:10.37,2013-04-12 23:08:00,
2013-04-13 00:13:00,39.0,35.8,29.16,NE,45,2.5,4.6,88,0.00,CLR,OVC,0.00,WeatherDisplay:10.37,2013-04-12 23:13:00,
2013-04-13 00:18:00,39.0,35.8,29.16,NE,45,4.0,4.0,88,0.00,CLR,OVC,0.00,WeatherDisplay:10.37,2013-04-12 23:18:00,
2013-04-13 00:23:00,39.0,35.8,29.16,NNE,22,3.3,3.5,88,0.00,CLR,OVC,0.00,WeatherDisplay:10.37,2013-04-12 23:23:00,
2013-04-13 00:28:00,39.0,35.8,29.17,NE,45,2.5,2.5,88,0.00,CLR,OVC,0.00,WeatherDisplay:10.37,2013-04-12 23:28:00,
2013-04-13 00:33:00,39.2,35.9,29.17,NE,45,2.7,4.6,88,0.00,CLR,OVC,0.00,WeatherDisplay:10.37,2013-04-12 23:33:00,
2013-04-13 00:38:00,39.2,35.9,29.17,NNE,22,1.8,2.3,88,0.00,CLR,OVC,0.00,WeatherDisplay:10.37,2013-04-12 23:38:00,
2013-04-13 00:43:00,39.4,36.1,29.17,NE,45,2.1,2.3,88,0.00,CLR,OVC,0.00,WeatherDisplay:10.37,2013-04-12 23:43:00,
2013-04-13 00:48:00,39.4,36.1,29.18,NE,45,1.3,0.0,88,0.00,CLR,OVC,0.00,WeatherDisplay:10.37,2013-04-12 23:48:00,
2013-04-13 00:53:00,39.4,36.1,29.18,NNE,22,2.1,2.3,88,0.00,CLR,OVC,0.00,WeatherDisplay:10.37,2013-04-12 23:53:00,
2013-04-13 00:58:00,39.4,36.1,29.18,ENE,68,2.2,2.3,88,0.00,CLR,OVC,0.00,WeatherDisplay:10.37,2013-04-12 23:58:00,
2013-04-13 01:03:00,39.4,36.1,29.18,ENE,68,2.6,3.5,88,0.00,CLR,OVC,0.00,WeatherDisplay:10.37,2013-04-13 00:03:00,
2013-04-13 01:08:00,39.4,36.1,29.18,NE,45,2.6,2.6,88,0.00,CLR,OVC,0.00,WeatherDisplay:10.37,2013-04-13 00:08:00,
2013-04-13 01:13:00,39.4,36.1,29.18,ENE,68,1.3,1.3,88,0.00,CLR,OVC,0.00,WeatherDisplay:10.37,2013-04-13 00:13:00,
2013-04-13 01:18:00,39.4,36.1,29.17,NE,45,0.0,0.0,88,0.00,CLR,OVC,0.00,WeatherDisplay:10.37,2013-04-13 00:18:00,
2013-04-13 01:23:00,39.4,36.1,29.17,North,0,0.0,0.0,88,0.00,CLR,OVC,0.00,WeatherDisplay:10.37,2013-04-13 00:23:00,
2013-04-13 01:28:00,39.4,36.1,29.18,ENE,68,0.0,0.0,88,0.00,CLR,OVC,0.00,WeatherDisplay:10.37,2013-04-13 00:28:00,
2013-04-13 01:33:00,39.4,36.1,29.18,ENE,68,0.0,0.0,88,0.00,CLR,OVC,0.00,WeatherDisplay:10.37,2013-04-13 00:33:00,
2013-04-13 01:38:00,39.4,36.4,29.18,ESE,112,0.7,2.3,89,0.00,CLR,OVC,0.00,WeatherDisplay:10.37,2013-04-13 00:38:00,
2013-04-13 01:43:00,39.4,36.1,29.18,ESE,112,2.4,2.4,88,0.00,CLR,OVC,0.00,WeatherDisplay:10.37,2013-04-13 00:43:00,
2013-04-13 01:48:00,39.4,36.1,29.18,East,90,0.8,1.1,88,0.00,CLR,OVC,0.00,WeatherDisplay:10.37,2013-04-13 00:48:00,
2013-04-13 01:53:00,39.4,36.4,29.18,ENE,68,0.9,1.1,89,0.00,CLR,OVC,0.00,WeatherDisplay:10.37,2013-04-13 00:53:00,
2013-04-13 01:58:00,39.4,36.4,29.18,NNE,22,0.0,0.0,89,0.00,CLR,OVC,0.00,WeatherDisplay:10.37,2013-04-13 00:58:00,
2013-04-13 02:03:00,39.6,36.3,29.19,NNE,22,0.0,0.0,88,0.00,CLR,OVC,0.00,WeatherDisplay:10.37,2013-04-13 01:03:00,
2013-04-13 02:08:00,39.6,36.6,29.19,NE,45,0.0,1.1,89,0.00,CLR,OVC,0.00,WeatherDisplay:10.37,2013-04-13 01:08:00,
2013-04-13 02:13:00,39.6,36.6,29.19,NNE,22,0.1,1.1,89,0.00,CLR,OVC,0.00,WeatherDisplay:10.37,2013-04-13 01:13:00,
2013-04-13 02:18:00,39.6,36.3,29.19,NE,45,1.1,1.1,88,0.00,CLR,OVC,0.00,WeatherDisplay:10.37,2013-04-13 01:18:00,
2013-04-13 02:23:00,39.6,36.6,29.19,NE,45,0.0,0.0,89,0.00,CLR,OVC,0.00,WeatherDisplay:10.37,2013-04-13 01:23:00,
2013-04-13 02:28:00,39.6,36.3,29.19,NE,45,0.0,0.0,88,0.00,CLR,OVC,0.00,WeatherDisplay:10.37,2013-04-13 01:28:00,
2013-04-13 02:33:00,39.6,36.6,29.19,NNE,22,1.5,2.3,89,0.00,CLR,OVC,0.00,WeatherDisplay:10.37,2013-04-13 01:33:00,
2013-04-13 02:38:00,39.6,36.6,29.19,NE,45,1.2,0.0,89,0.00,CLR,OVC,0.00,WeatherDisplay:10.37,2013-04-13 01:38:00,
2013-04-13 02:43:00,39.6,36.6,29.18,ENE,68,3.0,3.5,89,0.00,CLR,OVC,0.00,WeatherDisplay:10.37,2013-04-13 01:43:00,
2013-04-13 02:48:00,39.6,36.6,29.18,NE,45,1.8,2.3,89,0.00,CLR,OVC,0.00,WeatherDisplay:10.37,2013-04-13 01:48:00,
2013-04-13 02:53:00,39.6,36.6,29.19,NE,45,0.0,0.0,89,0.00,CLR,OVC,0.00,WeatherDisplay:10.37,2013-04-13 01:53:00,
2013-04-13 02:58:00,39.6,36.6,29.19,NE,45,0.0,0.0,89,0.00,CLR,OVC,0.00,WeatherDisplay:10.37,2013-04-13 01:58:00,
2013-04-13 03:03:00,39.6,36.6,29.19,East,90,0.4,1.1,89,0.00,CLR,OVC,0.00,WeatherDisplay:10.37,2013-04-13 02:03:00,
2013-04-13 03:08:00,39.6,36.6,29.19,NE,45,0.1,1.1,89,0.00,CLR,OVC,0.00,WeatherDisplay:10.37,2013-04-13 02:08:00,
2013-04-13 03:13:00,39.6,36.6,29.19,East,90,3.2,3.5,89,0.00,CLR,OVC,0.00,WeatherDisplay:10.37,2013-04-13 02:13:00,
2013-04-13 03:18:00,39.4,36.4,29.19,ENE,68,1.5,2.3,89,0.00,CLR,OVC,0.00,WeatherDisplay:10.37,2013-04-13 02:18:00,
2013-04-13 03:23:00,39.4,36.4,29.19,NE,45,1.3,0.0,89,0.00,CLR,OVC,0.00,WeatherDisplay:10.37,2013-04-13 02:23:00,
2013-04-13 03:28:00,39.4,36.4,29.19,NE,45,0.0,0.0,89,0.00,CLR,OVC,0.00,WeatherDisplay:10.37,2013-04-13 02:28:00,
2013-04-13 03:33:00,39.4,36.4,29.19,ENE,68,1.2,1.2,89,0.00,CLR,OVC,0.00,WeatherDisplay:10.37,2013-04-13 02:33:00,
2013-04-13 03:38:00,39.4,36.4,29.19,ENE,68,0.0,0.0,89,0.00,CLR,OVC,0.00,WeatherDisplay:10.37,2013-04-13 02:38:00,
2013-04-13 03:43:00,39.6,36.6,29.19,NE,45,0.2,1.1,89,0.00,CLR,OVC,0.00,WeatherDisplay:10.37,2013-04-13 02:43:00,
2013-04-13 03:48:00,39.6,36.6,29.20,East,90,0.2,0.9,89,0.00,CLR,OVC,0.00,WeatherDisplay:10.37,2013-04-13 02:48:00,
2013-04-13 03:53:00,39.6,36.6,29.20,ENE,68,0.0,0.0,89,0.00,CLR,OVC,0.00,WeatherDisplay:10.37,2013-04-13 02:53:00,
2013-04-13 03:58:00,39.6,36.6,29.20,East,90,0.0,0.0,89,0.00,CLR,OVC,0.00,WeatherDisplay:10.37,2013-04-13 02:58:00,
2013-04-13 04:03:00,39.6,36.6,29.19,ESE,112,0.0,0.0,89,0.00,CLR,OVC,0.00,WeatherDisplay:10.37,2013-04-13 03:03:00,
2013-04-13 04:08:00,39.6,36.6,29.20,ESE,112,0.0,0.0,89,0.00,CLR,OVC,0.00,WeatherDisplay:10.37,2013-04-13 03:08:00,
2013-04-13 04:13:00,39.6,36.6,29.20,SE,135,0.0,0.0,89,0.00,CLR,OVC,0.00,WeatherDisplay:10.37,2013-04-13 03:13:00,
2013-04-13 04:18:00,39.6,36.6,29.20,ESE,112,0.0,0.0,89,0.00,CLR,OVC,0.00,WeatherDisplay:10.37,2013-04-13 03:18:00,
2013-04-13 04:23:00,39.7,36.8,29.20,ESE,112,0.0,0.0,89,0.00,CLR,OVC,0.00,WeatherDisplay:10.37,2013-04-13 03:23:00,
2013-04-13 04:28:00,39.7,36.8,29.20,ENE,68,0.0,0.0,89,0.00,CLR,OVC,0.00,WeatherDisplay:10.37,2013-04-13 03:28:00,
2013-04-13 04:33:00,39.7,36.8,29.20,ENE,68,0.0,0.0,89,0.00,CLR,OVC,0.00,WeatherDisplay:10.37,2013-04-13 03:33:00,
2013-04-13 04:38:00,39.7,36.8,29.20,East,90,0.0,0.0,89,0.00,CLR,OVC,0.00,WeatherDisplay:10.37,2013-04-13 03:38:00,
2013-04-13 04:43:00,39.7,36.8,29.20,NE,45,0.0,0.0,89,0.00,CLR,OVC,0.00,WeatherDisplay:10.37,2013-04-13 03:43:00,
2013-04-13 04:48:00,39.7,36.8,29.19,NE,45,0.0,0.9,89,0.00,CLR,OVC,0.00,WeatherDisplay:10.37,2013-04-13 03:48:00,
2013-04-13 04:53:00,39.7,36.8,29.19,NE,45,0.0,0.0,89,0.00,CLR,OVC,0.00,WeatherDisplay:10.37,2013-04-13 03:53:00,
2013-04-13 04:58:00,39.7,36.8,29.19,NE,45,0.0,0.0,89,0.00,CLR,OVC,0.00,WeatherDisplay:10.37,2013-04-13 03:58:00,
2013-04-13 05:00:00,39.7,36.8,29.20,NE,45,0.0,0.0,89,0.00,CLR,OVC,0.00,WeatherDisplay:10.37,2013-04-13 04:00:00,
2013-04-13 05:05:00,39.7,36.8,29.19,NE,45,0.0,0.0,89,0.00,CLR,OVC,0.00,WeatherDisplay:10.37,2013-04-13 04:05:00,
2013-04-13 05:10:00,39.7,36.8,29.19,NNE,22,0.0,0.0,89,0.00,CLR,OVC,0.00,WeatherDisplay:10.37,2013-04-13 04:10:00,
2013-04-13 05:15:00,39.7,36.8,29.20,NNE,22,0.0,0.0,89,0.00,CLR,OVC,0.00,WeatherDisplay:10.37,2013-04-13 04:15:00,
2013-04-13 05:20:00,39.7,36.8,29.20,NNE,22,0.6,0.0,89,0.00,CLR,OVC,0.00,WeatherDisplay:10.37,2013-04-13 04:20:00,
2013-04-13 05:25:00,39.7,36.8,29.20,NNE,22,0.0,0.0,89,0.00,CLR,OVC,0.00,WeatherDisplay:10.37,2013-04-13 04:25:00,
2013-04-13 05:30:00,39.7,36.8,29.20,NNE,22,0.0,0.0,89,0.00,CLR,OVC,0.00,WeatherDisplay:10.37,2013-04-13 04:30:00,
2013-04-13 05:35:00,39.7,36.8,29.20,North,0,0.0,0.0,89,0.00,CLR,OVC,0.00,WeatherDisplay:10.37,2013-04-13 04:35:00,
2013-04-13 05:40:00,39.7,36.8,29.20,North,0,0.0,0.0,89,0.00,CLR,OVC,0.00,WeatherDisplay:10.37,2013-04-13 04:40:00,
2013-04-13 05:45:00,39.7,36.8,29.20,NNE,22,0.0,0.0,89,0.00,CLR,OVC,0.00,WeatherDisplay:10.37,2013-04-13 04:45:00,
2013-04-13 05:50:00,39.7,36.8,29.20,NE,45,0.0,0.0,89,0.00,CLR,OVC,0.00,WeatherDisplay:10.37,2013-04-13 04:50:00,
2013-04-13 05:55:00,39.7,36.8,29.20,ENE,68,0.0,0.0,89,0.00,CLR,OVC,0.00,WeatherDisplay:10.37,2013-04-13 04:55:00,
2013-04-13 06:00:00,39.7,36.8,29.20,East,90,0.0,0.0,89,0.00,CLR,OVC,0.00,WeatherDisplay:10.37,2013-04-13 05:00:00,
2013-04-13 06:05:00,39.7,36.8,29.20,ESE,112,1.5,2.3,89,0.00,CLR,OVC,0.00,WeatherDisplay:10.37,2013-04-13 05:05:00,
2013-04-13 06:10:00,39.7,36.8,29.20,SE,135,0.3,1.1,89,0.00,CLR,OVC,0.00,WeatherDisplay:10.37,2013-04-13 05:10:00,
2013-04-13 06:15:00,39.9,36.9,29.20,ESE,112,1.7,2.3,89,0.00,CLR,OVC,0.00,WeatherDisplay:10.37,2013-04-13 05:15:00,
2013-04-13 06:20:00,39.9,36.9,29.20,SE,135,2.4,2.4,89,0.00,CLR,OVC,0.00,WeatherDisplay:10.37,2013-04-13 05:20:00,
2013-04-13 06:25:00,39.9,36.9,29.21,SE,135,2.2,3.5,89,0.00,CLR,OVC,0.00,WeatherDisplay:10.37,2013-04-13 05:25:00,
2013-04-13 06:30:00,39.9,36.9,29.21,SE,135,0.9,0.0,89,0.00,CLR,OVC,0.00,WeatherDisplay:10.37,2013-04-13 05:30:00,
2013-04-13 06:35:00,39.9,36.9,29.21,SE,135,2.1,2.3,89,0.00,CLR,OVC,0.00,WeatherDisplay:10.37,2013-04-13 05:35:00,
2013-04-13 06:40:00,39.9,36.9,29.21,SE,135,2.2,2.2,89,0.00,CLR,OVC,0.00,WeatherDisplay:10.37,2013-04-13 05:40:00,
2013-04-13 06:45:00,39.9,36.9,29.22,SE,135,2.0,2.3,89,0.00,CLR,OVC,0.00,WeatherDisplay:10.37,2013-04-13 05:45:00,
2013-04-13 06:50:00,39.7,36.8,29.21,SE,135,1.8,2.3,89,0.00,CLR,OVC,0.00,WeatherDisplay:10.37,2013-04-13 05:50:00,
2013-04-13 06:55:00,39.9,36.9,29.21,SE,135,1.7,1.7,89,0.00,CLR,OVC,0.00,WeatherDisplay:10.37,2013-04-13 05:55:00,
2013-04-13 07:00:00,39.9,36.9,29.22,SE,135,1.5,1.5,89,0.00,CLR,OVC,0.00,WeatherDisplay:10.37,2013-04-13 06:00:00,
2013-04-13 07:05:00,39.9,36.9,29.22,ESE,112,0.8,0.0,89,0.00,CLR,OVC,0.00,WeatherDisplay:10.37,2013-04-13 06:05:00,
2013-04-13 07:10:00,39.9,36.9,29.22,SE,135,2.7,2.7,89,0.00,CLR,OVC,0.00,WeatherDisplay:10.37,2013-04-13 06:10:00,
2013-04-13 07:15:00,39.9,36.9,29.22,SE,135,1.5,2.3,89,0.00,CLR,OVC,0.00,WeatherDisplay:10.37,2013-04-13 06:15:00,
2013-04-13 07:20:00,39.9,36.9,29.22,SSE,158,2.1,2.3,89,0.00,CLR,OVC,0.00,WeatherDisplay:10.37,2013-04-13 06:20:00,
2013-04-13 07:25:00,39.9,36.9,29.22,ESE,112,1.1,3.5,89,0.00,CLR,OVC,0.00,WeatherDisplay:10.37,2013-04-13 06:25:00,
2013-04-13 07:30:00,39.9,36.9,29.23,SE,135,3.3,3.5,89,0.00,CLR,OVC,0.00,WeatherDisplay:10.37,2013-04-13 06:30:00,
2013-04-13 07:35:00,39.9,36.9,29.23,SE,135,1.7,3.5,89,0.00,CLR,OVC,0.00,WeatherDisplay:10.37,2013-04-13 06:35:00,
2013-04-13 07:40:00,39.9,36.9,29.23,East,90,3.0,3.5,89,0.00,CLR,OVC,0.00,WeatherDisplay:10.37,2013-04-13 06:40:00,
2013-04-13 07:45:00,40.1,37.1,29.23,SSE,158,0.3,2.3,89,0.00,CLR,OVC,0.00,WeatherDisplay:10.37,2013-04-13 06:45:00,
2013-04-13 07:52:00,40.1,37.1,29.23,SE,135,0.0,0.0,89,0.00,CLR,OVC,0.00,WeatherDisplay:10.37,2013-04-13 06:52:00,
2013-04-13 07:57:00,40.3,37.3,29.23,SE,135,1.4,2.3,89,0.00,CLR,OVC,0.00,WeatherDisplay:10.37,2013-04-13 06:57:00,
2013-04-13 08:03:00,40.3,37.3,29.23,SE,135,1.9,2.3,89,0.00,CLR,OVC,0.00,WeatherDisplay:10.37,2013-04-13 07:03:00,
2013-04-13 08:08:00,40.3,37.3,29.23,SE,135,1.3,3.5,89,0.00,CLR,OVC,0.00,WeatherDisplay:10.37,2013-04-13 07:08:00,
2013-04-13 08:13:00,40.6,37.7,29.23,SSE,158,2.1,2.3,89,0.00,CLR,OVC,0.00,WeatherDisplay:10.37,2013-04-13 07:13:00,
2013-04-13 08:18:00,40.8,37.8,29.23,SE,135,0.3,2.3,89,0.00,CLR,OVC,0.00,WeatherDisplay:10.37,2013-04-13 07:18:00,
2013-04-13 08:23:00,40.8,37.8,29.23,SE,135,2.5,3.5,89,0.00,CLR,OVC,0.00,WeatherDisplay:10.37,2013-04-13 07:23:00,
2013-04-13 08:28:00,41.2,38.2,29.23,South,180,3.4,4.2,89,0.00,CLR,OVC,0.00,WeatherDisplay:10.37,2013-04-13 07:28:00,
2013-04-13 08:33:00,41.4,38.4,29.23,SE,135,5.5,5.8,89,0.00,CLR,OVC,0.00,WeatherDisplay:10.37,2013-04-13 07:33:00,
2013-04-13 08:38:00,41.7,38.7,29.23,SE,135,2.5,2.5,89,0.00,CLR,OVC,0.00,WeatherDisplay:10.37,2013-04-13 07:38:00,
2013-04-13 08:44:00,41.5,38.5,29.24,SSE,158,5.7,6.9,89,0.00,CLR,OVC,0.00,WeatherDisplay:10.37,2013-04-13 07:44:00,
2013-04-13 08:49:00,41.5,38.5,29.24,SE,135,5.3,5.3,89,0.00,CLR,OVC,0.00,WeatherDisplay:10.37,2013-04-13 07:49:00,
2013-04-13 08:54:00,41.7,38.4,29.24,SE,135,6.0,6.0,88,0.00,CLR,OVC,0.00,WeatherDisplay:10.37,2013-04-13 07:54:00,
2013-04-13 08:59:00,41.7,38.4,29.23,SE,135,2.6,4.6,88,0.00,CLR,OVC,0.00,WeatherDisplay:10.37,2013-04-13 07:59:00,
2013-04-13 09:04:00,41.7,38.4,29.23,South,180,9.5,9.5,88,0.00,CLR,OVC,0.00,WeatherDisplay:10.37,2013-04-13 08:04:00,
2013-04-13 09:09:00,41.9,38.3,29.23,SSE,158,5.0,6.9,87,0.00,CLR,OVC,0.00,WeatherDisplay:10.37,2013-04-13 08:09:00,
2013-04-13 09:15:00,41.9,38.0,29.24,SE,135,5.4,5.8,86,0.00,CLR,OVC,0.00,WeatherDisplay:10.37,2013-04-13 08:15:00,
2013-04-13 09:20:00,42.1,38.2,29.24,SSE,158,4.1,4.6,86,0.00,CLR,OVC,0.00,WeatherDisplay:10.37,2013-04-13 08:20:00,
2013-04-13 09:25:00,42.1,38.2,29.24,SE,135,4.4,5.8,86,0.00,CLR,OVC,0.00,WeatherDisplay:10.37,2013-04-13 08:25:00,
2013-04-13 09:30:00,42.1,37.9,29.24,South,180,7.1,7.1,85,0.00,CLR,OVC,0.00,WeatherDisplay:10.37,2013-04-13 08:30:00,
2013-04-13 09:35:00,42.4,38.2,29.23,SSE,158,4.1,6.9,85,0.00,CLR,OVC,0.00,WeatherDisplay:10.37,2013-04-13 08:35:00,
2013-04-13 09:40:00,42.6,38.1,29.23,SE,135,7.0,8.9,84,0.00,CLR,OVC,0.00,WeatherDisplay:10.37,2013-04-13 08:40:00,
2013-04-13 09:46:00,42.6,38.1,29.23,ESE,112,6.0,6.0,84,0.00,CLR,OVC,0.00,WeatherDisplay:10.37,2013-04-13 08:46:00,
2013-04-13 09:51:00,43.3,38.5,29.23,SE,135,4.2,6.9,83,0.00,CLR,OVC,0.00,WeatherDisplay:10.37,2013-04-13 08:51:00,
2013-04-13 09:56:00,43.5,38.4,29.23,South,180,6.8,8.1,82,0.00,CLR,OVC,0.00,WeatherDisplay:10.37,2013-04-13 08:56:00,
2013-04-13 10:01:00,44.1,38.9,29.23,ESE,112,8.1,8.1,82,0.00,CLR,OVC,0.00,WeatherDisplay:10.37,2013-04-13 09:01:00,
2013-04-13 10:06:00,44.6,39.4,29.23,South,180,8.3,8.3,82,0.00,CLR,OVC,0.00,WeatherDisplay:10.37,2013-04-13 09:06:00,
2013-04-13 10:11:00,46.6,40.7,29.23,SSE,158,5.0,6.9,80,0.00,CLR,OVC,0.00,WeatherDisplay:10.37,2013-04-13 09:11:00,
2013-04-13 10:17:00,47.1,40.6,29.23,South,180,5.8,5.8,78,0.00,CLR,OVC,0.00,WeatherDisplay:10.37,2013-04-13 09:17:00,
2013-04-13 10:22:00,46.6,39.4,29.24,South,180,3.7,4.6,76,0.00,CLR,OVC,0.00,WeatherDisplay:10.37,2013-04-13 09:22:00,
2013-04-13 10:27:00,46.6,39.4,29.24,South,180,4.2,4.6,76,0.00,CLR,OVC,0.00,WeatherDisplay:10.37,2013-04-13 09:27:00,
2013-04-13 10:33:00,46.4,38.9,29.24,SSE,158,6.5,10.4,75,0.00,CLR,OVC,0.00,WeatherDisplay:10.37,2013-04-13 09:33:00,
2013-04-13 10:38:00,48.6,41.7,29.24,ESE,112,8.5,8.5,77,0.00,CLR,OVC,0.00,WeatherDisplay:10.37,2013-04-13 09:38:00,
2013-04-13 10:43:00,49.8,40.8,29.24,South,180,5.4,5.8,71,0.00,CLR,OVC,0.00,WeatherDisplay:10.37,2013-04-13 09:43:00,
2013-04-13 10:48:00,49.6,40.6,29.24,SE,135,8.9,9.2,71,0.00,CLR,OVC,0.00,WeatherDisplay:10.37,2013-04-13 09:48:00,
2013-04-13 10:53:00,48.4,39.0,29.24,SE,135,6.3,6.9,70,0.00,CLR,OVC,0.00,WeatherDisplay:10.37,2013-04-13 09:53:00,
2013-04-13 10:58:00,47.8,38.5,29.24,SSE,158,5.1,5.1,70,0.00,CLR,OVC,0.00,WeatherDisplay:10.37,2013-04-13 09:58:00,
2013-04-13 11:03:00,47.1,38.2,29.24,South,180,6.6,6.6,71,0.00,CLR,OVC,0.00,WeatherDisplay:10.37,2013-04-13 10:03:00,
2013-04-13 11:08:00,47.7,39.1,29.24,South,180,9.8,9.8,72,0.00,CLR,OVC,0.00,WeatherDisplay:10.37,2013-04-13 10:08:00,
2013-04-13 11:14:00,48.9,40.3,29.24,SE,135,7.1,8.1,72,0.00,CLR,OVC,0.00,WeatherDisplay:10.37,2013-04-13 10:14:00,
2013-04-13 11:19:00,48.2,38.5,29.24,SSE,158,6.1,6.1,69,0.00,CLR,OVC,0.00,WeatherDisplay:10.37,2013-04-13 10:19:00,
2013-04-13 11:24:00,47.8,38.2,29.24,SSE,158,8.3,10.4,69,0.00,CLR,OVC,0.00,WeatherDisplay:10.37,2013-04-13 10:24:00,
2013-04-13 11:29:00,47.3,38.0,29.24,SSE,158,4.5,5.8,70,0.00,CLR,OVC,0.00,WeatherDisplay:10.37,2013-04-13 10:29:00,
2013-04-13 11:34:00,47.5,38.5,29.24,SE,135,9.7,10.4,71,0.00,CLR,OVC,0.00,WeatherDisplay:10.37,2013-04-13 10:34:00,
2013-04-13 11:39:00,47.5,38.5,29.24,SSW,202,6.8,6.8,71,0.00,CLR,OVC,0.00,WeatherDisplay:10.37,2013-04-13 10:39:00,
2013-04-13 11:44:00,48.4,39.0,29.24,South,180,5.9,6.9,70,0.00,CLR,OVC,0.00,WeatherDisplay:10.37,2013-04-13 10:44:00,
2013-04-13 11:50:00,48.6,39.2,29.24,SE,135,5.7,5.8,70,0.00,CLR,OVC,0.00,WeatherDisplay:10.37,2013-04-13 10:50:00,
2013-04-13 11:55:00,48.7,39.4,29.24,East,90,4.6,4.6,70,0.00,CLR,OVC,0.00,WeatherDisplay:10.37,2013-04-13 10:55:00,
2013-04-13 12:00:00,48.9,39.6,29.24,SE,135,3.4,8.1,70,0.00,CLR,OVC,0.00,WeatherDisplay:10.37,2013-04-13 11:00:00,
2013-04-13 12:06:00,49.6,40.6,29.24,South,180,3.9,4.6,71,0.00,CLR,OVC,0.00,WeatherDisplay:10.37,2013-04-13 11:06:00,
2013-04-13 12:12:00,49.6,39.5,29.24,South,180,6.9,8.1,68,0.00,CLR,OVC,0.00,WeatherDisplay:10.37,2013-04-13 11:12:00,
2013-04-13 12:17:00,50.0,40.2,29.24,SSW,202,8.5,11.6,69,0.00,CLR,OVC,0.00,WeatherDisplay:10.37,2013-04-13 11:17:00,
2013-04-13 12:22:00,50.4,40.6,29.24,South,180,10.1,10.4,69,0.00,CLR,OVC,0.00,WeatherDisplay:10.37,2013-04-13 11:22:00,
2013-04-13 12:27:00,50.2,40.0,29.24,SSE,158,12.7,12.7,68,0.00,CLR,OVC,0.00,WeatherDisplay:10.37,2013-04-13 11:27:00,
2013-04-13 12:32:00,50.0,39.8,29.24,South,180,12.0,12.0,68,0.00,CLR,OVC,0.00,WeatherDisplay:10.37,2013-04-13 11:32:00,
2013-04-13 12:37:00,50.2,40.0,29.24,SSE,158,7.8,12.7,68,0.00,CLR,OVC,0.00,WeatherDisplay:10.37,2013-04-13 11:37:00,
2013-04-13 12:42:00,50.4,40.2,29.24,SE,135,9.6,9.6,68,0.00,CLR,OVC,0.00,WeatherDisplay:10.37,2013-04-13 11:42:00,
2013-04-13 12:47:00,50.2,40.0,29.24,SE,135,5.9,8.1,68,0.00,CLR,OVC,0.00,WeatherDisplay:10.37,2013-04-13 11:47:00,
2013-04-13 12:53:00,50.2,40.0,29.24,ESE,112,7.3,11.5,68,0.00,CLR,OVC,0.00,WeatherDisplay:10.37,2013-04-13 11:53:00,
2013-04-13 12:59:00,50.5,40.4,29.24,SE,135,8.0,9.2,68,0.00,CLR,OVC,0.00,WeatherDisplay:10.37,2013-04-13 11:59:00,
2013-04-13 13:04:00,50.5,40.4,29.24,ESE,112,2.9,4.6,68,0.00,CLR,OVC,0.00,WeatherDisplay:10.37,2013-04-13 12:04:00,
2013-04-13 13:09:00,50.7,40.2,29.23,ESE,112,6.5,6.9,67,0.00,CLR,OVC,0.00,WeatherDisplay:10.37,2013-04-13 12:09:00,
2013-04-13 13:14:00,50.7,40.2,29.23,SSE,158,7.0,8.1,67,0.00,CLR,OVC,0.00,WeatherDisplay:10.37,2013-04-13 12:14:00,
2013-04-13 13:19:00,50.7,40.2,29.23,SE,135,5.5,8.1,67,0.00,CLR,OVC,0.00,WeatherDisplay:10.37,2013-04-13 12:19:00,
2013-04-13 13:24:00,50.7,39.8,29.22,SE,135,13.2,13.2,66,0.00,CLR,OVC,0.00,WeatherDisplay:10.37,2013-04-13 12:24:00,
2013-04-13 13:29:00,50.7,39.8,29.22,SSE,158,10.5,15.0,66,0.00,CLR,OVC,0.00,WeatherDisplay:10.37,2013-04-13 12:29:00,
2013-04-13 13:34:00,50.9,39.9,29.22,SSE,158,6.5,7.4,66,0.00,CLR,OVC,0.00,WeatherDisplay:10.37,2013-04-13 12:34:00,
2013-04-13 13:40:00,50.9,39.9,29.22,SW,225,7.6,9.2,66,0.00,CLR,OVC,0.00,WeatherDisplay:10.37,2013-04-13 12:40:00,
2013-04-13 13:45:00,51.1,38.9,29.21,SSE,158,11.8,12.7,63,0.00,CLR,OVC,0.00,WeatherDisplay:10.37,2013-04-13 12:45:00,
2013-04-13 13:50:00,51.1,38.9,29.21,SE,135,12.7,13.8,63,0.00,CLR,OVC,0.00,WeatherDisplay:10.37,2013-04-13 12:50:00,
2013-04-13 13:55:00,51.1,39.3,29.21,South,180,12.2,17.3,64,0.00,CLR,OVC,0.00,WeatherDisplay:10.37,2013-04-13 12:55:00,
2013-04-13 14:00:00,51.1,38.9,29.20,ESE,112,5.5,7.4,63,0.00,CLR,OVC,0.00,WeatherDisplay:10.37,2013-04-13 13:00:00,
2013-04-13 14:05:00,51.1,39.3,29.20,SE,135,9.6,11.5,64,0.00,CLR,OVC,0.00,WeatherDisplay:10.37,2013-04-13 13:05:00,
2013-04-13 14:10:00,51.4,39.7,29.20,SSE,158,7.1,7.1,64,0.00,CLR,OVC,0.00,WeatherDisplay:10.37,2013-04-13 13:10:00,
2013-04-13 14:15:00,51.4,39.3,29.20,South,180,10.8,15.0,63,0.00,CLR,OVC,0.00,WeatherDisplay:10.37,2013-04-13 13:15:00,
2013-04-13 14:21:00,51.4,38.8,29.20,SE,135,4.8,7.4,62,0.00,CLR,OVC,0.00,WeatherDisplay:10.37,2013-04-13 13:21:00,
2013-04-13 14:26:00,51.1,38.5,29.20,SSE,158,7.4,8.1,62,0.00,CLR,OVC,0.00,WeatherDisplay:10.37,2013-04-13 13:26:00,
2013-04-13 14:31:00,51.1,38.5,29.19,SSW,202,14.1,14.1,62,0.00,CLR,OVC,0.00,WeatherDisplay:10.37,2013-04-13 13:31:00,
2013-04-13 14:38:00,51.3,38.7,29.19,SSE,158,6.7,8.1,62,0.00,CLR,OVC,0.00,WeatherDisplay:10.37,2013-04-13 13:38:00,
2013-04-13 14:43:00,51.4,38.8,29.19,SE,135,16.2,16.2,62,0.00,CLR,OVC,0.00,WeatherDisplay:10.37,2013-04-13 13:43:00,
2013-04-13 14:48:00,51.6,37.7,29.19,South,180,7.1,11.5,59,0.00,CLR,OVC,0.00,WeatherDisplay:10.37,2013-04-13 13:48:00,
2013-04-13 14:53:00,51.6,37.7,29.19,SE,135,12.2,15.0,59,0.00,CLR,OVC,0.00,WeatherDisplay:10.37,2013-04-13 13:53:00,
2013-04-13 14:58:00,51.6,37.7,29.19,South,180,12.1,12.1,59,0.00,CLR,OVC,0.00,WeatherDisplay:10.37,2013-04-13 13:58:00,
2013-04-13 15:03:00,51.8,38.3,29.19,SE,135,7.2,8.1,60,0.00,CLR,OVC,0.00,WeatherDisplay:10.37,2013-04-13 14:03:00,
2013-04-13 15:09:00,52.0,38.1,29.18,SSE,158,8.6,8.6,59,0.00,CLR,OVC,0.00,WeatherDisplay:10.37,2013-04-13 14:09:00,
2013-04-13 15:14:00,51.8,37.9,29.18,ENE,68,7.8,7.8,59,0.00,CLR,OVC,0.00,WeatherDisplay:10.37,2013-04-13 14:14:00,
2013-04-13 15:19:00,51.8,37.9,29.18,SE,135,7.3,8.1,59,0.00,CLR,OVC,0.00,WeatherDisplay:10.37,2013-04-13 14:19:00,
2013-04-13 15:24:00,52.0,38.1,29.18,SSE,158,13.5,13.5,59,0.00,CLR,OVC,0.00,WeatherDisplay:10.37,2013-04-13 14:24:00,
2013-04-13 15:29:00,52.2,38.3,29.18,SSE,158,13.4,16.1,59,0.00,CLR,OVC,0.00,WeatherDisplay:10.37,2013-04-13 14:29:00,
2013-04-13 15:34:00,52.2,38.3,29.18,SSE,158,13.4,16.1,59,0.00,CLR,OVC,0.00,WeatherDisplay:10.37,2013-04-13 14:34:00,
2013-04-13 15:40:00,52.2,38.7,29.17,ESE,112,6.3,7.4,60,0.00,CLR,OVC,0.00,WeatherDisplay:10.37,2013-04-13 14:40:00,
2013-04-13 15:45:00,52.3,38.4,29.17,SE,135,11.6,11.6,59,0.00,CLR,OVC,0.00,WeatherDisplay:10.37,2013-04-13 14:45:00,
2013-04-13 15:50:00,52.3,38.4,29.17,SE,135,9.3,11.5,59,0.00,CLR,OVC,0.00,WeatherDisplay:10.37,2013-04-13 14:50:00,
2013-04-13 15:55:00,52.5,38.6,29.17,ESE,112,6.4,6.4,59,0.00,CLR,OVC,0.00,WeatherDisplay:10.37,2013-04-13 14:55:00,
2013-04-13 16:00:00,52.5,38.2,29.17,SE,135,5.4,9.2,58,0.00,CLR,OVC,0.00,WeatherDisplay:10.37,2013-04-13 15:00:00,
2013-04-13 16:05:00,52.5,38.2,29.16,ESE,112,8.0,8.0,58,0.00,CLR,OVC,0.00,WeatherDisplay:10.37,2013-04-13 15:05:00,
2013-04-13 16:11:00,52.3,37.5,29.16,South,180,9.9,9.9,57,0.00,CLR,OVC,0.00,WeatherDisplay:10.37,2013-04-13 15:11:00,
2013-04-13 16:18:00,52.3,37.5,29.16,SSE,158,13.2,13.8,57,0.00,CLR,OVC,0.00,WeatherDisplay:10.37,2013-04-13 15:18:00,
2013-04-13 16:23:00,52.3,37.5,29.15,South,180,5.1,6.9,57,0.00,CLR,OVC,0.00,WeatherDisplay:10.37,2013-04-13 15:23:00,
2013-04-13 16:28:00,52.3,37.5,29.14,ESE,112,11.2,15.0,57,0.00,CLR,OVC,0.00,WeatherDisplay:10.37,2013-04-13 15:28:00,
2013-04-13 16:33:00,52.3,37.5,29.14,SE,135,8.6,9.2,57,0.00,CLR,OVC,0.00,WeatherDisplay:10.37,2013-04-13 15:33:00,
2013-04-13 16:38:00,52.3,37.5,29.15,ESE,112,11.3,11.5,57,0.00,CLR,OVC,0.00,WeatherDisplay:10.37,2013-04-13 15:38:00,
2013-04-13 16:43:00,52.3,37.5,29.15,SSE,158,10.8,11.5,57,0.00,CLR,OVC,0.00,WeatherDisplay:10.37,2013-04-13 15:43:00,
2013-04-13 16:48:00,52.3,37.5,29.15,SSE,158,9.8,9.8,57,0.00,CLR,OVC,0.00,WeatherDisplay:10.37,2013-04-13 15:48:00,
2013-04-13 16:54:00,52.3,37.5,29.14,SSE,158,6.5,6.9,57,0.00,CLR,OVC,0.00,WeatherDisplay:10.37,2013-04-13 15:54:00,
2013-04-13 16:59:00,52.3,37.5,29.14,SE,135,8.8,8.8,57,0.00,CLR,OVC,0.00,WeatherDisplay:10.37,2013-04-13 15:59:00,
2013-04-13 17:04:00,52.3,38.0,29.14,ESE,112,9.0,9.2,58,0.00,CLR,OVC,0.00,WeatherDisplay:10.37,2013-04-13 16:04:00,
2013-04-13 17:09:00,52.3,38.0,29.13,SE,135,6.4,8.1,58,0.00,CLR,OVC,0.00,WeatherDisplay:10.37,2013-04-13 16:09:00,
2013-04-13 17:15:00,52.3,38.0,29.13,SE,135,7.2,7.2,58,0.00,CLR,OVC,0.00,WeatherDisplay:10.37,2013-04-13 16:15:00,
2013-04-13 17:20:00,52.3,37.5,29.13,ESE,112,8.0,8.1,57,0.00,CLR,OVC,0.00,WeatherDisplay:10.37,2013-04-13 16:20:00,
2013-04-13 17:25:00,52.3,37.5,29.13,ESE,112,5.3,6.9,57,0.00,CLR,OVC,0.00,WeatherDisplay:10.37,2013-04-13 16:25:00,
2013-04-13 17:30:00,52.3,37.1,29.12,SE,135,13.3,13.8,56,0.00,CLR,OVC,0.00,WeatherDisplay:10.37,2013-04-13 16:30:00,
2013-04-13 17:35:00,52.3,37.1,29.12,SE,135,5.9,5.9,56,0.00,CLR,OVC,0.00,WeatherDisplay:10.37,2013-04-13 16:35:00,
2013-04-13 17:40:00,52.3,37.1,29.12,SE,135,6.5,6.5,56,0.00,CLR,OVC,0.00,WeatherDisplay:10.37,2013-04-13 16:40:00,
2013-04-13 17:45:00,52.2,36.9,29.12,SE,135,10.9,10.9,56,0.00,CLR,OVC,0.00,WeatherDisplay:10.37,2013-04-13 16:45:00,
2013-04-13 17:50:00,52.0,36.8,29.11,SE,135,14.6,15.0,56,0.00,CLR,OVC,0.00,WeatherDisplay:10.37,2013-04-13 16:50:00,
2013-04-13 17:55:00,52.0,36.8,29.11,SE,135,9.8,9.8,56,0.00,CLR,OVC,0.00,WeatherDisplay:10.37,2013-04-13 16:55:00,
2013-04-13 18:03:00,52.0,36.8,29.11,SSE,158,9.5,9.5,56,0.00,CLR,OVC,0.00,WeatherDisplay:10.37,2013-04-13 17:03:00,
2013-04-13 18:08:00,51.8,37.0,29.11,SSE,158,10.3,10.4,57,0.00,CLR,OVC,0.00,WeatherDisplay:10.37,2013-04-13 17:08:00,
2013-04-13 18:13:00,51.8,37.0,29.11,SSE,158,10.6,15.0,57,0.00,CLR,OVC,0.00,WeatherDisplay:10.37,2013-04-13 17:13:00,
2013-04-13 18:19:00,51.8,37.5,29.11,South,180,10.3,12.7,58,0.00,CLR,OVC,0.00,WeatherDisplay:10.37,2013-04-13 17:19:00,
2013-04-13 18:24:00,51.3,37.8,29.11,SSE,158,7.9,10.4,60,0.00,CLR,OVC,0.00,WeatherDisplay:10.37,2013-04-13 17:24:00,
2013-04-13 18:29:00,50.9,37.9,29.11,ESE,112,6.0,6.0,61,0.00,CLR,OVC,0.00,WeatherDisplay:10.37,2013-04-13 17:29:00,
2013-04-13 18:34:00,50.7,37.8,29.11,ESE,112,7.4,7.4,61,0.00,CLR,OVC,0.00,WeatherDisplay:10.37,2013-04-13 17:34:00,
2013-04-13 18:39:00,50.7,38.2,29.11,South,180,7.5,8.1,62,0.00,CLR,OVC,0.00,WeatherDisplay:10.37,2013-04-13 17:39:00,
2013-04-13 18:45:00,50.2,38.9,29.10,SE,135,11.8,11.8,65,0.00,CLR,OVC,0.00,WeatherDisplay:10.37,2013-04-13 17:45:00,
2013-04-13 18:50:00,49.8,38.9,29.09,SE,135,13.6,16.1,66,0.00,CLR,OVC,0.00,WeatherDisplay:10.37,2013-04-13 17:50:00,
2013-04-13 18:55:00,49.6,38.7,29.09,SE,135,6.3,8.0,66,0.00,CLR,OVC,0.00,WeatherDisplay:10.37,2013-04-13 17:55:00,
2013-04-13 19:01:00,49.6,38.7,29.09,SSE,158,8.1,8.1,66,0.00,CLR,OVC,0.00,WeatherDisplay:10.37,2013-04-13 18:01:00,
2013-04-13 19:07:00,48.9,38.8,29.08,East,90,3.8,3.8,68,0.00,CLR,OVC,0.00,WeatherDisplay:10.37,2013-04-13 18:07:00,
2013-04-13 19:12:00,48.9,38.8,29.08,SSW,202,3.6,3.6,68,0.00,CLR,OVC,0.00,WeatherDisplay:10.37,2013-04-13 18:12:00,
2013-04-13 19:18:00,48.9,38.8,29.08,SSE,158,13.0,13.0,68,0.00,CLR,OVC,0.00,WeatherDisplay:10.37,2013-04-13 18:18:00,
2013-04-13 19:23:00,48.7,38.6,29.08,SE,135,4.6,4.6,68,0.00,CLR,OVC,0.00,WeatherDisplay:10.37,2013-04-13 18:23:00,
2013-04-13 19:27:00,48.6,39.2,29.08,SE,135,6.5,8.1,70,0.00,CLR,OVC,0.00,WeatherDisplay:10.37,2013-04-13 18:27:00,
2013-04-13 19:28:00,48.6,39.2,29.08,SE,135,6.5,8.1,70,0.00,CLR,OVC,0.00,WeatherDisplay:10.37,2013-04-13 18:28:00,
2013-04-13 19:33:00,48.6,39.9,29.08,SSE,158,7.8,8.1,72,0.00,CLR,OVC,0.00,WeatherDisplay:10.37,2013-04-13 18:33:00,
2013-04-13 19:38:00,48.2,39.6,29.08,SSE,158,7.9,7.9,72,0.00,CLR,OVC,0.00,WeatherDisplay:10.37,2013-04-13 18:38:00,
2013-04-13 19:43:00,48.0,39.8,29.08,SSE,158,12.4,13.8,73,0.00,CLR,OVC,0.00,WeatherDisplay:10.37,2013-04-13 18:43:00,
2013-04-13 19:48:00,48.0,40.1,29.08,SE,135,15.0,15.0,74,0.00,CLR,OVC,0.00,WeatherDisplay:10.37,2013-04-13 18:48:00,
2013-04-13 19:53:00,47.7,40.1,29.08,SE,135,11.1,11.5,75,0.00,CLR,OVC,0.00,WeatherDisplay:10.37,2013-04-13 18:53:00,
2013-04-13 19:58:00,47.7,40.1,29.08,SE,135,13.2,16.1,75,0.00,CLR,OVC,0.00,WeatherDisplay:10.37,2013-04-13 18:58:00,
2013-04-13 20:03:00,47.5,40.6,29.08,South,180,12.8,16.1,77,0.00,CLR,OVC,0.00,WeatherDisplay:10.37,2013-04-13 19:03:00,
2013-04-13 20:08:00,47.5,40.6,29.08,SE,135,14.1,14.1,77,0.00,CLR,OVC,0.00,WeatherDisplay:10.37,2013-04-13 19:08:00,
2013-04-13 20:13:00,47.5,40.6,29.07,SE,135,15.9,15.9,77,0.00,CLR,OVC,0.00,WeatherDisplay:10.37,2013-04-13 19:13:00,
2013-04-13 20:18:00,47.5,40.6,29.08,SE,135,15.2,15.2,77,0.00,CLR,OVC,0.00,WeatherDisplay:10.37,2013-04-13 19:18:00,
2013-04-13 20:23:00,47.5,41.0,29.08,SSE,158,9.8,11.5,78,0.00,CLR,OVC,0.00,WeatherDisplay:10.37,2013-04-13 19:23:00,
2013-04-13 20:28:00,47.5,41.3,29.08,SSE,158,12.5,12.7,79,0.00,CLR,OVC,0.00,WeatherDisplay:10.37,2013-04-13 19:28:00,
2013-04-13 20:33:00,47.3,41.1,29.08,SSE,158,10.7,11.5,79,0.00,CLR,OVC,0.00,WeatherDisplay:10.37,2013-04-13 19:33:00,
2013-04-13 20:38:00,47.3,41.1,29.07,SE,135,12.5,16.1,79,0.00,CLR,OVC,0.00,WeatherDisplay:10.37,2013-04-13 19:38:00,
2013-04-13 20:43:00,47.3,41.4,29.07,ESE,112,7.0,13.8,80,0.00,CLR,OVC,0.00,WeatherDisplay:10.37,2013-04-13 19:43:00,
2013-04-13 20:48:00,47.3,41.4,29.07,SSE,158,13.1,13.1,80,0.00,CLR,OVC,0.00,WeatherDisplay:10.37,2013-04-13 19:48:00,
2013-04-13 20:53:00,47.1,41.3,29.07,SSE,158,8.7,9.2,80,0.00,CLR,OVC,0.00,WeatherDisplay:10.37,2013-04-13 19:53:00,
2013-04-13 20:58:00,47.1,41.3,29.07,SSE,158,8.7,9.2,80,0.00,CLR,OVC,0.00,WeatherDisplay:10.37,2013-04-13 19:58:00,
2013-04-13 21:03:00,47.1,41.3,29.06,SSE,158,8.7,9.2,80,0.00,CLR,OVC,0.00,WeatherDisplay:10.37,2013-04-13 20:03:00,
2013-04-13 21:08:00,47.1,41.3,29.05,SSE,159,8.7,9.2,80,0.00,CLR,OVC,0.00,WeatherDisplay:10.37,2013-04-13 20:08:00,
2013-04-13 21:14:00,47.1,41.3,29.05,SSE,159,8.7,9.2,80,0.00,CLR,OVC,0.00,WeatherDisplay:10.37,2013-04-13 20:14:00,
2013-04-13 21:19:00,46.9,41.7,29.05,SE,135,6.9,6.9,82,0.00,CLR,OVC,0.00,WeatherDisplay:10.37,2013-04-13 20:19:00,
2013-04-13 21:24:00,46.9,41.7,29.03,SSE,158,7.0,10.4,82,0.00,CLR,OVC,0.00,WeatherDisplay:10.37,2013-04-13 20:24:00,
2013-04-13 21:29:00,46.9,41.7,29.03,SSE,158,10.3,10.4,82,0.00,CLR,OVC,0.00,WeatherDisplay:10.37,2013-04-13 20:29:00,
2013-04-13 21:34:00,46.9,41.7,29.03,SSE,158,10.3,10.4,82,0.00,CLR,OVC,0.00,WeatherDisplay:10.37,2013-04-13 20:34:00,
2013-04-13 21:39:00,46.9,42.0,29.03,ESE,112,6.9,6.9,83,0.00,CLR,OVC,0.00,WeatherDisplay:10.37,2013-04-13 20:39:00,
2013-04-13 21:44:00,46.9,42.0,29.03,ESE,112,6.9,6.9,83,0.00,CLR,OVC,0.00,WeatherDisplay:10.37,2013-04-13 20:44:00,
2013-04-13 21:49:00,47.1,42.5,29.03,ESE,112,10.7,10.7,84,0.00,CLR,OVC,0.00,WeatherDisplay:10.37,2013-04-13 20:49:00,
2013-04-13 21:54:00,47.1,42.5,29.03,SSE,158,12.5,12.7,84,0.00,CLR,OVC,0.00,WeatherDisplay:10.37,2013-04-13 20:54:00,
2013-04-13 21:59:00,47.1,42.8,29.03,SE,135,13.0,13.0,85,0.00,CLR,OVC,0.00,WeatherDisplay:10.37,2013-04-13 20:59:00,
2013-04-13 22:04:00,47.1,42.8,29.03,SE,135,7.1,8.1,85,0.00,CLR,OVC,0.00,WeatherDisplay:10.37,2013-04-13 21:04:00,
2013-04-13 22:09:00,47.3,43.0,29.03,SE,135,11.8,11.8,85,0.00,CLR,OVC,0.00,WeatherDisplay:10.37,2013-04-13 21:09:00,
2013-04-13 22:14:00,47.3,43.0,29.01,SE,135,11.8,11.8,85,0.00,CLR,OVC,0.00,WeatherDisplay:10.37,2013-04-13 21:14:00,
2013-04-13 22:19:00,47.5,43.2,29.01,South,180,13.6,13.6,85,0.00,CLR,OVC,0.00,WeatherDisplay:10.37,2013-04-13 21:19:00,
2013-04-13 22:24:00,47.7,43.7,29.01,SSE,158,17.6,18.4,86,0.00,CLR,OVC,0.00,WeatherDisplay:10.37,2013-04-13 21:24:00,
2013-04-13 22:29:00,47.7,43.7,29.01,SE,135,7.9,8.1,86,0.00,CLR,OVC,0.00,WeatherDisplay:10.37,2013-04-13 21:29:00,
2013-04-13 22:34:00,47.8,43.9,29.00,SSE,158,12.4,12.7,86,0.00,CLR,OVC,0.00,WeatherDisplay:10.37,2013-04-13 21:34:00,
2013-04-13 22:39:00,47.8,43.9,29.00,South,180,18.4,23.0,86,0.00,CLR,OVC,0.00,WeatherDisplay:10.37,2013-04-13 21:39:00,
2013-04-13 22:44:00,47.8,44.2,29.00,SE,135,11.0,11.5,87,0.00,CLR,OVC,0.00,WeatherDisplay:10.37,2013-04-13 21:44:00,
2013-04-13 22:49:00,47.8,44.2,29.00,SSE,158,18.3,18.4,87,0.00,CLR,OVC,0.00,WeatherDisplay:10.37,2013-04-13 21:49:00,
2013-04-13 22:54:00,48.0,44.3,29.00,SSE,158,10.3,13.8,87,0.00,CLR,OVC,0.00,WeatherDisplay:10.37,2013-04-13 21:54:00,
2013-04-13 22:59:00,48.0,44.3,28.98,SSE,158,11.2,11.5,87,0.00,CLR,OVC,0.00,WeatherDisplay:10.37,2013-04-13 21:59:00,
2013-04-13 23:04:00,48.0,44.3,28.99,South,180,10.9,17.3,87,0.00,CLR,OVC,0.00,WeatherDisplay:10.37,2013-04-13 22:04:00,